TimeMST,TemperatureF,Dew PointF,Humidity,Sea Level PressureIn,VisibilityMPH,Wind Direction,Wind SpeedMPH,Gust SpeedMPH,PrecipitationIn,Events,Conditions,WindDirDegrees,DateUTC
12:19 AM,28.4,26.6,93,29.93,1.8,Calm,Calm,-,0.00,,Overcast,0,2013-11-04 07:19:00
12:22 AM,28.4,26.6,93,29.93,1.0,Calm,Calm,-,0.00,,Overcast,0,2013-11-04 07:22:00
12:41 AM,28.4,28.4,100,29.93,0.5,Calm,Calm,-,0.00,Fog,Light Freezing Fog,0,2013-11-04 07:41:00
12:55 AM,28.0,27.0,96,30.01,1.5,Calm,Calm,-,0.00,,Overcast,0,2013-11-04 07:55:00
12:59 AM,28.4,28.4,100,29.93,3.0,North,3.5,-,N/A,,Overcast,10,2013-11-04 07:59:00
1:13 AM,28.4,26.6,93,29.93,5.0,Calm,Calm,-,N/A,,Overcast,0,2013-11-04 08:13:00
1:41 AM,28.4,26.6,93,29.93,8.0,NNE,3.5,-,N/A,,Overcast,20,2013-11-04 08:41:00
1:55 AM,27.0,26.1,96,30.01,9.0,NNE,3.5,-,N/A,,Overcast,20,2013-11-04 08:55:00
2:09 AM,28.4,26.6,93,29.93,10.0,Calm,Calm,-,N/A,,Overcast,0,2013-11-04 09:09:00
2:28 AM,28.4,26.6,93,29.94,10.0,Calm,Calm,-,N/A,,Overcast,0,2013-11-04 09:28:00
2:35 AM,28.4,26.6,93,29.94,10.0,Calm,Calm,-,N/A,,Overcast,0,2013-11-04 09:35:00
2:55 AM,28.9,28.0,96,30.01,10.0,Calm,Calm,-,N/A,,Overcast,0,2013-11-04 09:55:00
3:05 AM,28.4,28.4,100,29.93,9.0,Calm,Calm,-,0.00,Snow,Light Snow,0,2013-11-04 10:05:00
3:55 AM,28.0,27.0,96,30.01,10.0,Calm,Calm,-,0.00,,Overcast,0,2013-11-04 10:55:00
4:55 AM,27.0,26.1,96,30.02,9.0,NNE,3.5,-,0.00,,Overcast,20,2013-11-04 11:55:00
5:41 AM,26.6,24.8,93,29.95,10.0,Calm,Calm,-,N/A,,Overcast,0,2013-11-04 12:41:00
5:55 AM,28.0,26.1,92,30.04,10.0,West,3.5,-,N/A,,Overcast,270,2013-11-04 12:55:00
6:55 AM,27.0,26.1,96,30.05,10.0,West,3.5,-,N/A,,Overcast,280,2013-11-04 13:55:00
7:40 AM,23.0,23.0,100,29.97,10.0,WNW,3.5,-,N/A,,Overcast,290,2013-11-04 14:40:00
7:51 AM,24.8,24.8,100,29.97,3.0,Calm,Calm,-,N/A,,Overcast,0,2013-11-04 14:51:00
7:55 AM,25.0,24.1,96,30.06,10.0,Calm,Calm,-,N/A,,Overcast,0,2013-11-04 14:55:00
8:02 AM,23.0,21.2,93,29.97,10.0,Calm,Calm,-,N/A,,Overcast,0,2013-11-04 15:02:00
8:31 AM,26.6,24.8,93,29.98,10.0,Calm,Calm,-,N/A,,Scattered Clouds,0,2013-11-04 15:31:00
8:55 AM,26.1,23.0,88,30.07,10.0,Calm,Calm,-,N/A,,Partly Cloudy,0,2013-11-04 15:55:00
9:10 AM,24.8,23.0,93,29.98,10.0,Calm,Calm,-,N/A,,Mostly Cloudy,0,2013-11-04 16:10:00
9:55 AM,30.9,27.0,85,30.08,10.0,Calm,Calm,-,N/A,,Mostly Cloudy,0,2013-11-04 16:55:00
10:55 AM,30.9,26.1,82,30.09,10.0,Calm,Calm,-,N/A,,Overcast,0,2013-11-04 17:55:00
11:55 AM,30.9,27.0,85,30.09,10.0,NNE,4.6,-,N/A,,Overcast,20,2013-11-04 18:55:00
12:55 PM,30.0,26.1,85,30.09,10.0,North,3.5,-,N/A,,Mostly Cloudy,10,2013-11-04 19:55:00
1:55 PM,33.1,28.0,82,30.09,10.0,Calm,Calm,-,N/A,,Mostly Cloudy,0,2013-11-04 20:55:00
2:55 PM,34.0,28.0,79,30.09,10.0,Calm,Calm,-,N/A,,Overcast,0,2013-11-04 21:55:00
3:55 PM,33.1,28.9,85,30.10,10.0,Calm,Calm,-,N/A,,Overcast,0,2013-11-04 22:55:00
4:55 PM,30.9,28.0,89,30.11,10.0,Calm,Calm,-,N/A,,Overcast,0,2013-11-04 23:55:00
5:55 PM,30.9,28.0,89,30.13,10.0,SSW,3.5,-,N/A,,Overcast,200,2013-11-05 00:55:00
6:55 PM,30.0,28.0,92,30.14,10.0,SSW,3.5,-,N/A,,Overcast,210,2013-11-05 01:55:00
7:55 PM,30.0,28.0,92,30.16,10.0,Calm,Calm,-,N/A,,Overcast,0,2013-11-05 02:55:00
8:55 PM,30.0,28.0,92,30.16,9.0,SSW,3.5,-,0.00,,Overcast,210,2013-11-05 03:55:00
9:55 PM,30.0,28.0,92,30.16,10.0,Calm,Calm,-,N/A,,Overcast,0,2013-11-05 04:55:00
10:55 PM,30.0,27.0,88,30.16,10.0,SSE,6.9,-,N/A,,Overcast,150,2013-11-05 05:55:00
11:55 PM,28.9,26.1,89,30.17,10.0,South,3.5,-,N/A,,Overcast,190,2013-11-05 06:55:00